Time;durP1;ratioP1;P1;durP2;ratioP2;P2;SDS_P1;SDS_P2;PMS_P1;PMS_P2;Temp;Humidity;BMP_temperature;BMP_pressure;BME280_temperature;BME280_humidity;BME280_pressure;Samples;Min_cycle;Max_cycle;Signal;HPM_P1;HPM_P2
2021/04/16 00:00:25;;;;;;;2.50;2.30;;;2.50;99.90;;;;;;4676910;30;20439;-76
2021/04/16 00:02:51;;;;;;;2.58;2.38;;;2.60;99.90;;;;;;4704668;30;20423;-77
2021/04/16 00:05:17;;;;;;;2.70;2.50;;;2.50;99.90;;;;;;4663233;30;20446;-76
2021/04/16 00:07:43;;;;;;;2.47;2.27;;;2.50;99.90;;;;;;4678200;30;20490;-76
2021/04/16 00:10:13;;;;;;;2.53;2.33;;;2.60;99.90;;;;;;4655990;30;20813;-76
2021/04/16 00:12:39;;;;;;;3.80;2.80;;;2.60;99.90;;;;;;4663887;30;20431;-76
2021/04/16 00:15:17;;;;;;;3.78;2.60;;;2.70;99.90;;;;;;4652095;30;20445;-76
2021/04/16 00:17:43;;;;;;;2.58;2.22;;;2.60;99.90;;;;;;4658099;30;20433;-76
2021/04/16 00:20:10;;;;;;;2.58;2.38;;;2.60;99.90;;;;;;4666602;30;20452;-76
2021/04/16 00:22:36;;;;;;;2.53;2.33;;;2.60;99.90;;;;;;4655193;30;20952;-77
2021/04/16 00:25:03;;;;;;;3.35;2.28;;;2.60;99.90;;;;;;4655422;30;20433;-76
2021/04/16 00:27:29;;;;;;;3.13;2.47;;;2.70;99.90;;;;;;4663249;30;20489;-77
2021/04/16 00:29:54;;;;;;;2.53;2.33;;;2.70;99.90;;;;;;4646778;30;20424;-76
2021/04/16 00:32:20;;;;;;;2.42;2.22;;;2.70;99.90;;;;;;4647194;30;20428;-76
2021/04/16 00:34:46;;;;;;;2.70;2.40;;;2.60;99.90;;;;;;4662947;30;20427;-76
2021/04/16 00:37:11;;;;;;;3.40;2.70;;;2.60;99.90;;;;;;4647862;30;20431;-75
2021/04/16 00:39:37;;;;;;;2.65;2.38;;;2.70;99.90;;;;;;4681211;30;20440;-76
2021/04/16 00:42:03;;;;;;;2.20;2.03;;;2.60;99.90;;;;;;4668521;30;20957;-76
2021/04/16 00:44:29;;;;;;;2.97;2.23;;;2.70;99.90;;;;;;4687870;30;20957;-76
2021/04/16 00:47:00;;;;;;;2.70;2.50;;;2.60;99.90;;;;;;4650697;30;20423;-77
2021/04/16 00:49:32;;;;;;;3.47;2.65;;;2.70;99.90;;;;;;4682280;30;20980;-76
2021/04/16 00:52:02;;;;;;;2.83;2.40;;;2.70;99.90;;;;;;4635720;30;20431;-77
2021/04/16 00:54:31;;;;;;;2.90;2.30;;;2.60;99.90;;;;;;4656529;30;20437;-76
2021/04/16 00:56:56;;;;;;;3.15;2.67;;;2.60;99.90;;;;;;4646867;30;20954;-76
2021/04/16 00:59:25;;;;;;;3.88;2.55;;;2.70;99.90;;;;;;4658834;30;20458;-76
2021/04/16 01:01:51;;;;;;;4.18;2.42;;;2.70;99.90;;;;;;4668820;30;20432;-76
2021/04/16 01:04:16;;;;;;;2.25;2.05;;;2.70;99.90;;;;;;4672375;30;20421;-76
2021/04/16 01:06:42;;;;;;;2.40;2.20;;;2.70;99.90;;;;;;4654122;30;20427;-76
2021/04/16 01:09:08;;;;;;;2.33;2.13;;;2.70;99.90;;;;;;4670478;30;20423;-76
2021/04/16 01:11:34;;;;;;;4.10;2.60;;;2.70;99.90;;;;;;4672592;30;20427;-76
2021/04/16 01:14:00;;;;;;;2.77;2.23;;;2.70;99.90;;;;;;4634696;30;21072;-76
2021/04/16 01:16:29;;;;;;;2.15;1.95;;;2.70;99.90;;;;;;4662195;30;20411;-76
2021/04/16 01:18:55;;;;;;;2.30;2.10;;;2.70;99.90;;;;;;4663470;30;20427;-77
2021/04/16 01:21:24;;;;;;;2.70;2.20;;;2.80;99.90;;;;;;4660761;30;20447;-76
2021/04/16 01:23:55;;;;;;;1.98;1.88;;;2.70;99.90;;;;;;4656826;30;20431;-76
2021/04/16 01:26:27;;;;;;;2.00;1.90;;;2.70;99.90;;;;;;4677055;30;20431;-76
2021/04/16 01:28:54;;;;;;;3.08;2.20;;;2.80;99.90;;;;;;4674181;30;20438;-76
2021/04/16 01:31:21;;;;;;;2.53;2.17;;;2.80;99.90;;;;;;4661446;30;20929;-76
2021/04/16 01:33:49;;;;;;;2.92;2.40;;;2.80;99.90;;;;;;4668178;30;20466;-76
2021/04/16 01:36:19;;;;;;;2.10;2.00;;;2.90;99.90;;;;;;4634153;30;20493;-76
2021/04/16 01:38:45;;;;;;;2.38;2.00;;;2.70;99.90;;;;;;4668901;30;20446;-76
2021/04/16 01:41:12;;;;;;;1.95;1.85;;;2.70;99.90;;;;;;4661884;30;20531;-76
2021/04/16 01:43:40;;;;;;;2.20;2.00;;;2.70;99.90;;;;;;4645221;30;21183;-76
2021/04/16 01:46:08;;;;;;;2.63;2.13;;;2.70;99.90;;;;;;4672172;30;20510;-76
2021/04/16 01:48:42;;;;;;;2.50;2.30;;;2.70;99.90;;;;;;4660206;30;20502;-76
2021/04/16 01:51:10;;;;;;;2.45;2.25;;;2.60;99.90;;;;;;4684166;30;20459;-76
2021/04/16 01:53:36;;;;;;;2.30;2.10;;;2.60;99.90;;;;;;4633389;30;20443;-76
2021/04/16 01:56:02;;;;;;;3.20;2.30;;;2.60;99.90;;;;;;4684391;30;20435;-77
2021/04/16 01:58:28;;;;;;;2.20;2.00;;;2.70;99.90;;;;;;4672464;30;20451;-76
2021/04/16 02:00:54;;;;;;;2.40;2.20;;;2.70;99.90;;;;;;4650744;30;20459;-77
2021/04/16 02:03:20;;;;;;;2.13;1.90;;;2.70;99.90;;;;;;4635918;30;20423;-76
2021/04/16 02:05:45;;;;;;;2.77;2.10;;;2.70;99.90;;;;;;4660999;30;20942;-76
2021/04/16 02:08:11;;;;;;;2.55;2.20;;;2.70;99.90;;;;;;4633077;30;20435;-77
2021/04/16 02:10:37;;;;;;;2.00;1.90;;;2.60;99.90;;;;;;4680045;30;20450;-77
2021/04/16 02:13:04;;;;;;;1.80;1.70;;;2.70;99.90;;;;;;4661541;30;20894;-77
2021/04/16 02:15:30;;;;;;;1.90;1.80;;;2.60;99.90;;;;;;4687978;30;20433;-77
2021/04/16 02:17:56;;;;;;;2.75;2.33;;;2.70;99.90;;;;;;4631781;30;20485;-77
2021/04/16 02:20:23;;;;;;;2.30;2.10;;;2.70;99.90;;;;;;4644584;30;20435;-77
2021/04/16 02:22:48;;;;;;;1.83;1.73;;;2.60;99.90;;;;;;4647651;30;20799;-76
2021/04/16 02:25:14;;;;;;;2.40;2.20;;;2.60;99.90;;;;;;4658040;30;20430;-76
2021/04/16 02:27:40;;;;;;;2.15;1.80;;;2.60;99.90;;;;;;4635010;30;20468;-76
2021/04/16 02:30:11;;;;;;;2.47;2.13;;;2.60;99.90;;;;;;4647457;30;20427;-77
2021/04/16 02:32:37;;;;;;;2.30;2.10;;;2.60;99.90;;;;;;4634898;30;20431;-77
2021/04/16 02:35:04;;;;;;;2.40;1.90;;;2.70;99.90;;;;;;4658270;30;20478;-77
2021/04/16 02:37:30;;;;;;;2.85;2.10;;;2.60;99.90;;;;;;4665933;30;20427;-77
2021/04/16 02:39:56;;;;;;;2.20;1.90;;;2.70;99.90;;;;;;4649038;30;20453;-77
2021/04/16 02:42:21;;;;;;;2.00;1.80;;;2.60;99.90;;;;;;4661472;30;20914;-76
2021/04/16 02:44:47;;;;;;;2.30;1.85;;;2.60;99.90;;;;;;4651718;30;20438;-77
2021/04/16 02:47:13;;;;;;;2.25;2.03;;;2.60;99.90;;;;;;4665646;30;20418;-78
2021/04/16 02:49:39;;;;;;;2.27;1.73;;;2.70;99.90;;;;;;4663498;30;20463;-78
2021/04/16 02:52:05;;;;;;;2.85;2.15;;;2.60;99.90;;;;;;4664273;30;20522;-78
2021/04/16 02:54:30;;;;;;;2.40;2.20;;;2.50;99.90;;;;;;4664374;30;20443;-78
2021/04/16 02:56:57;;;;;;;2.80;1.92;;;2.50;99.90;;;;;;4665467;30;20427;-78
2021/04/16 02:59:23;;;;;;;1.88;1.75;;;2.50;99.90;;;;;;4681659;30;20419;-79
2021/04/16 03:01:49;;;;;;;1.98;1.77;;;2.50;99.90;;;;;;4636682;30;20929;-79
2021/04/16 03:04:15;;;;;;;2.30;2.10;;;2.60;99.90;;;;;;4667123;30;20502;-79
2021/04/16 03:06:41;;;;;;;1.88;1.77;;;2.60;99.90;;;;;;4652857;30;20562;-78
2021/04/16 03:09:07;;;;;;;2.20;2.00;;;2.50;99.90;;;;;;4681169;30;20422;-79
2021/04/16 03:11:33;;;;;;;2.20;2.00;;;2.50;99.90;;;;;;4674415;30;20509;-78
2021/04/16 03:13:58;;;;;;;4.18;1.98;;;2.50;99.90;;;;;;4665654;30;20924;-78
2021/04/16 03:16:26;;;;;;;2.08;1.83;;;2.50;99.90;;;;;;4666259;30;20427;-79
2021/04/16 03:18:52;;;;;;;2.72;2.35;;;2.50;99.90;;;;;;4651807;30;20423;-79
2021/04/16 03:21:18;;;;;;;2.63;2.20;;;2.50;99.90;;;;;;4682786;30;20443;-79
2021/04/16 03:26:45;;;;;;;2.03;1.87;;;2.50;99.90;;;;;;5483976;24;20455;-80
2021/04/16 03:32:14;;;;;;;1.80;1.70;;;2.50;99.90;;;;;;4980024;24;20438;-80
2021/04/16 03:34:39;;;;;;;1.90;1.80;;;2.50;99.90;;;;;;4712225;30;20417;-79
2021/04/16 03:37:05;;;;;;;2.22;1.92;;;2.50;99.90;;;;;;4716756;30;20436;-80
2021/04/16 03:39:31;;;;;;;2.30;2.10;;;2.50;99.90;;;;;;4699822;30;20424;-80
2021/04/16 03:41:56;;;;;;;1.70;1.60;;;2.50;99.90;;;;;;4708193;30;20426;-80
2021/04/16 03:44:22;;;;;;;1.90;1.80;;;2.60;99.90;;;;;;4721398;30;20418;-80
2021/04/16 03:46:48;;;;;;;2.97;2.03;;;2.50;99.90;;;;;;4705790;30;20460;-80
2021/04/16 03:49:13;;;;;;;2.10;1.90;;;2.40;99.90;;;;;;4732857;30;20420;-79
2021/04/16 03:51:50;;;;;;;2.22;1.90;;;2.50;99.90;;;;;;4702805;30;20456;-79
2021/04/16 03:54:16;;;;;;;1.70;1.60;;;2.40;99.90;;;;;;4698387;30;20419;-78
2021/04/16 03:56:42;;;;;;;2.27;2.00;;;2.60;99.90;;;;;;4698394;30;20414;-79
2021/04/16 03:59:07;;;;;;;1.87;1.77;;;2.60;99.90;;;;;;4705677;30;20458;-79
2021/04/16 04:01:33;;;;;;;1.70;1.60;;;2.60;99.90;;;;;;4707413;30;20428;-80
2021/04/16 04:03:58;;;;;;;2.13;1.93;;;2.50;99.90;;;;;;4723477;30;20994;-79
2021/04/16 04:06:24;;;;;;;2.00;1.80;;;2.50;99.90;;;;;;4720373;30;20528;-79
2021/04/16 04:08:50;;;;;;;2.38;1.70;;;2.50;99.90;;;;;;4698099;30;20432;-80
2021/04/16 04:11:16;;;;;;;3.07;1.90;;;2.50;99.90;;;;;;4698814;30;20461;-79
2021/04/16 04:13:42;;;;;;;2.10;1.90;;;2.60;99.90;;;;;;4707089;30;20420;-80
2021/04/16 04:16:08;;;;;;;3.13;2.07;;;2.40;99.90;;;;;;4690032;30;20482;-80
2021/04/16 04:18:34;;;;;;;3.00;2.37;;;2.40;99.90;;;;;;4701580;30;20436;-81
2021/04/16 04:21:00;;;;;;;1.88;1.77;;;2.40;99.90;;;;;;4700999;30;20430;-81
2021/04/16 04:23:26;;;;;;;2.00;1.83;;;2.40;99.90;;;;;;4687394;30;20534;-81
2021/04/16 04:25:54;;;;;;;2.80;1.97;;;2.60;99.90;;;;;;4702232;30;20428;-81
2021/04/16 04:28:20;;;;;;;3.28;2.28;;;2.50;99.90;;;;;;4715397;30;20458;-81
2021/04/16 04:30:46;;;;;;;2.05;1.83;;;2.40;99.90;;;;;;4716772;30;20982;-82
2021/04/16 04:33:21;;;;;;;1.97;1.80;;;2.30;99.90;;;;;;4698602;30;20453;-82
2021/04/16 04:35:52;;;;;;;2.38;1.98;;;2.30;99.90;;;;;;4713715;30;20423;-81
2021/04/16 04:38:19;;;;;;;2.35;2.15;;;2.30;99.90;;;;;;4695393;30;20444;-78
2021/04/16 04:40:45;;;;;;;1.88;1.77;;;2.50;99.90;;;;;;4692719;30;20445;-78
2021/04/16 04:43:11;;;;;;;7.70;5.25;;;2.50;99.90;;;;;;4730768;30;20499;-78
2021/04/16 04:45:37;;;;;;;2.28;2.10;;;2.30;99.90;;;;;;4713059;30;20488;-78
2021/04/16 04:48:03;;;;;;;2.10;2.00;;;2.40;99.90;;;;;;4713692;30;20452;-79
2021/04/16 04:50:29;;;;;;;2.40;2.20;;;2.50;99.90;;;;;;4698441;30;20941;-78
2021/04/16 04:52:55;;;;;;;2.30;2.10;;;2.50;99.90;;;;;;4701535;30;20495;-80
2021/04/16 04:55:24;;;;;;;2.25;1.92;;;2.40;99.90;;;;;;4703703;30;20430;-79
2021/04/16 04:57:50;;;;;;;2.10;2.00;;;2.50;99.90;;;;;;4729838;30;20433;-79
2021/04/16 05:00:17;;;;;;;2.60;2.20;;;2.50;99.90;;;;;;4728093;30;20434;-80
2021/04/16 05:02:46;;;;;;;2.50;2.30;;;2.50;99.90;;;;;;4729803;30;20422;-79
2021/04/16 05:05:13;;;;;;;3.13;2.20;;;2.50;99.90;;;;;;4715873;30;20426;-81
2021/04/16 05:07:39;;;;;;;2.17;1.98;;;2.50;99.90;;;;;;4717936;30;20866;-81
2021/04/16 05:10:06;;;;;;;2.70;2.40;;;2.60;99.90;;;;;;4707872;30;20433;-80
2021/04/16 05:12:32;;;;;;;2.20;2.00;;;2.60;99.90;;;;;;4733583;30;20418;-81
2021/04/16 05:14:58;;;;;;;2.85;2.13;;;2.70;99.90;;;;;;4730271;30;20418;-81
2021/04/16 05:17:24;;;;;;;2.88;2.10;;;2.60;99.90;;;;;;4716254;30;20414;-80
2021/04/16 05:19:51;;;;;;;2.45;2.25;;;2.60;99.90;;;;;;4715323;30;20528;-79
2021/04/16 05:22:17;;;;;;;2.83;2.33;;;2.50;99.90;;;;;;4714112;30;20457;-80
2021/04/16 05:24:43;;;;;;;2.67;2.47;;;2.60;99.90;;;;;;4729487;30;20418;-79
2021/04/16 05:27:13;;;;;;;4.70;2.60;;;2.60;99.90;;;;;;4716801;30;20943;-80
2021/04/16 05:29:40;;;;;;;2.85;2.65;;;2.60;99.90;;;;;;4716611;30;20497;-81
2021/04/16 05:32:06;;;;;;;3.00;2.25;;;2.90;99.90;;;;;;4723751;30;20999;-78
2021/04/16 05:34:32;;;;;;;2.63;2.40;;;2.60;99.90;;;;;;4714311;30;20453;-78
2021/04/16 05:36:59;;;;;;;3.15;2.15;;;2.80;99.90;;;;;;4713167;30;20553;-78
2021/04/16 05:39:25;;;;;;;2.83;2.08;;;2.80;99.90;;;;;;4718832;30;20445;-78
2021/04/16 05:41:51;;;;;;;3.88;2.20;;;2.80;99.90;;;;;;4712877;30;20431;-78
2021/04/16 05:44:17;;;;;;;4.18;2.50;;;2.80;99.90;;;;;;4710621;30;20494;-78
2021/04/16 05:46:44;;;;;;;3.75;2.53;;;3.00;99.90;;;;;;4711286;30;20428;-78
2021/04/16 05:49:11;;;;;;;2.42;2.22;;;3.20;99.90;;;;;;4710076;30;20676;-78
2021/04/16 05:51:37;;;;;;;2.60;2.40;;;3.20;99.90;;;;;;4711388;30;20442;-78
2021/04/16 05:54:32;;;;;;;3.80;2.17;;;3.10;99.90;;;;;;4713702;30;20447;-78
2021/04/16 05:56:58;;;;;;;2.70;2.47;;;3.20;99.90;;;;;;4707915;30;20436;-80
2021/04/16 05:59:23;;;;;;;2.93;2.30;;;3.40;99.90;;;;;;4684553;30;20431;-81
2021/04/16 06:01:49;;;;;;;3.95;2.22;;;3.40;99.90;;;;;;4691523;30;20485;-81
2021/04/16 06:04:18;;;;;;;2.47;2.28;;;3.40;99.90;;;;;;4678985;30;20464;-82
2021/04/16 06:06:44;;;;;;;3.92;2.17;;;3.60;99.90;;;;;;4683766;30;20440;-82
2021/04/16 06:09:11;;;;;;;2.03;1.88;;;3.60;99.90;;;;;;4677014;30;20513;-82
2021/04/16 06:11:37;;;;;;;2.70;2.50;;;3.60;99.90;;;;;;4674137;30;20423;-80
2021/04/16 06:14:03;;;;;;;4.57;2.33;;;3.60;99.90;;;;;;4683037;30;20441;-81
2021/04/16 06:16:29;;;;;;;2.20;2.00;;;3.60;99.90;;;;;;4677625;30;20964;-82
2021/04/16 06:18:55;;;;;;;3.47;2.28;;;3.70;99.90;;;;;;4664308;30;20441;-82
2021/04/16 06:21:21;;;;;;;2.45;2.15;;;3.70;99.90;;;;;;4678544;30;20433;-78
2021/04/16 06:23:47;;;;;;;2.58;2.17;;;3.80;99.90;;;;;;4674276;30;20435;-78
2021/04/16 06:26:13;;;;;;;3.67;2.40;;;3.80;99.90;;;;;;4662726;30;20432;-81
2021/04/16 06:28:41;;;;;;;2.67;2.40;;;3.90;99.90;;;;;;4679097;30;20440;-82
2021/04/16 06:31:07;;;;;;;2.20;2.00;;;3.90;99.90;;;;;;4677290;30;20434;-80
2021/04/16 06:33:34;;;;;;;3.80;3.03;;;3.90;99.90;;;;;;4664538;30;20433;-82
2021/04/16 06:36:04;;;;;;;5.88;3.92;;;3.80;99.90;;;;;;4676337;30;20503;-82
2021/04/16 06:38:35;;;;;;;3.83;3.47;;;4.10;99.90;;;;;;4673916;30;20489;-81
2021/04/16 06:41:02;;;;;;;5.47;3.17;;;4.10;99.90;;;;;;4648916;30;20473;-81
2021/04/16 06:43:36;;;;;;;6.43;4.20;;;4.20;99.90;;;;;;4692488;30;20505;-81
2021/04/16 06:46:02;;;;;;;5.22;3.47;;;4.20;99.90;;;;;;4673088;30;20447;-82
2021/04/16 06:48:28;;;;;;;4.97;2.73;;;4.20;99.90;;;;;;4662297;30;20444;-82
2021/04/16 06:50:58;;;;;;;4.50;2.80;;;4.20;99.90;;;;;;4670469;30;20809;-81
2021/04/16 06:53:51;;;;;;;2.95;2.70;;;4.40;99.90;;;;;;4683143;30;20459;-81
2021/04/16 06:56:34;;;;;;;6.85;3.38;;;4.40;99.90;;;;;;4676719;30;20500;-82
2021/04/16 06:59:02;;;;;;;3.50;3.00;;;4.40;99.90;;;;;;4685375;30;20485;-82
2021/04/16 07:01:52;;;;;;;2.80;2.50;;;4.40;99.90;;;;;;4677188;30;20512;-81
2021/04/16 07:04:25;;;;;;;3.70;2.80;;;4.30;99.90;;;;;;4672426;30;20429;-82
2021/04/16 07:06:55;;;;;;;5.93;4.30;;;4.50;99.90;;;;;;4693812;30;20461;-81
2021/04/16 07:09:42;;;;;;;4.75;3.63;;;4.50;99.90;;;;;;4677450;30;20926;-81
2021/04/16 07:12:14;;;;;;;4.88;3.38;;;4.60;99.90;;;;;;4675763;30;20434;-81
2021/04/16 07:14:45;;;;;;;5.50;3.58;;;4.50;99.90;;;;;;4646854;30;20530;-82
2021/04/16 07:17:14;;;;;;;3.88;3.47;;;4.60;99.90;;;;;;4673552;30;20530;-81
2021/04/16 07:19:40;;;;;;;5.13;3.20;;;4.70;99.90;;;;;;4686577;30;20438;-81
2021/04/16 07:22:22;;;;;;;3.72;3.40;;;4.70;99.90;;;;;;4669633;30;20522;-81
2021/04/16 07:24:49;;;;;;;4.25;3.50;;;4.80;99.90;;;;;;4692577;30;20430;-82
2021/04/16 07:27:26;;;;;;;3.28;2.97;;;4.90;99.90;;;;;;4662339;30;20962;-82
2021/04/16 07:29:54;;;;;;;3.60;3.30;;;5.00;99.90;;;;;;4679336;30;20421;-81
2021/04/16 07:32:27;;;;;;;5.88;4.05;;;5.20;99.90;;;;;;4679820;30;20468;-81
2021/04/16 07:34:54;;;;;;;4.10;3.70;;;5.20;99.90;;;;;;4678027;30;20442;-81
2021/04/16 07:37:22;;;;;;;5.68;3.90;;;5.20;99.90;;;;;;4671845;30;20427;-81
2021/04/16 07:40:00;;;;;;;4.35;3.95;;;5.20;99.90;;;;;;4672901;30;20461;-81
2021/04/16 07:42:46;;;;;;;5.00;4.50;;;5.40;99.90;;;;;;4681332;30;20506;-83
2021/04/16 07:45:18;;;;;;;5.20;4.18;;;5.50;99.90;;;;;;4681527;30;20447;-82
2021/04/16 07:47:44;;;;;;;4.78;3.88;;;5.50;99.90;;;;;;4690285;30;20430;-81
2021/04/16 07:50:31;;;;;;;4.20;3.80;;;5.70;99.90;;;;;;4671382;30;20446;-81
2021/04/16 07:52:57;;;;;;;4.78;4.07;;;5.80;99.90;;;;;;4687242;30;20431;-82
2021/04/16 07:55:28;;;;;;;4.70;4.15;;;5.60;99.90;;;;;;4682875;30;20813;-82
2021/04/16 07:58:30;;;;;;;3.88;3.58;;;5.50;99.90;;;;;;4685298;30;20462;-82
2021/04/16 08:00:56;;;;;;;4.47;3.70;;;5.60;99.90;;;;;;4676746;30;20480;-82
2021/04/16 08:03:24;;;;;;;6.50;4.07;;;5.60;99.90;;;;;;4662791;30;20429;-82
2021/04/16 08:05:54;;;;;;;4.25;3.85;;;5.70;99.90;;;;;;4656797;30;20948;-82
2021/04/16 08:08:26;;;;;;;4.90;3.78;;;5.70;99.90;;;;;;4680196;30;20875;-82
2021/04/16 08:10:55;;;;;;;4.40;3.63;;;5.80;99.90;;;;;;4640154;30;20515;-82
2021/04/16 08:13:28;;;;;;;5.45;3.85;;;5.90;99.90;;;;;;4676691;30;20433;-81
2021/04/16 08:15:54;;;;;;;4.25;3.85;;;5.80;99.90;;;;;;4664178;30;20814;-80
2021/04/16 08:18:30;;;;;;;4.88;3.63;;;5.80;99.90;;;;;;4687682;30;20437;-81
2021/04/16 08:21:03;;;;;;;4.15;3.75;;;5.90;99.90;;;;;;4680351;30;20515;-81
2021/04/16 08:23:43;;;;;;;4.78;3.50;;;6.00;99.90;;;;;;4679403;30;20486;-81
2021/04/16 08:26:09;;;;;;;4.07;3.67;;;6.10;99.90;;;;;;4669415;30;20434;-80
2021/04/16 08:28:51;;;;;;;3.95;3.63;;;6.30;99.90;;;;;;4685629;30;20433;-81
2021/04/16 08:31:53;;;;;;;4.55;3.85;;;6.30;99.90;;;;;;4679853;30;20426;-80
2021/04/16 08:34:27;;;;;;;3.90;3.55;;;6.30;99.90;;;;;;4676200;30;20567;-79
2021/04/16 08:36:52;;;;;;;4.78;3.70;;;6.20;99.90;;;;;;4679465;30;20468;-78
2021/04/16 08:39:28;;;;;;;4.25;3.85;;;6.00;99.90;;;;;;4679532;30;20457;-79
2021/04/16 08:42:03;;;;;;;5.20;4.18;;;6.00;99.90;;;;;;4683147;30;20552;-78
2021/04/16 08:44:28;;;;;;;4.03;3.63;;;5.80;99.90;;;;;;4681662;30;20437;-82
2021/04/16 08:46:55;;;;;;;4.85;4.07;;;5.90;99.90;;;;;;4677964;30;20433;-81
2021/04/16 08:49:31;;;;;;;4.28;3.67;;;6.00;99.90;;;;;;4692131;30;20442;-82
2021/04/16 08:52:31;;;;;;;4.20;3.80;;;6.10;99.90;;;;;;4668032;30;20430;-83
2021/04/16 08:55:26;;;;;;;4.57;3.92;;;6.30;99.90;;;;;;4689799;30;20433;-82
2021/04/16 08:57:57;;;;;;;4.25;3.67;;;6.50;99.90;;;;;;4663244;30;20442;-81
2021/04/16 09:00:40;;;;;;;4.30;3.90;;;6.30;99.90;;;;;;4684264;30;21323;-82
2021/04/16 09:03:19;;;;;;;4.05;3.65;;;6.40;99.90;;;;;;4679250;30;20463;-82
2021/04/16 09:06:01;;;;;;;3.85;3.50;;;6.50;99.90;;;;;;4679783;30;20527;-82
2021/04/16 09:08:41;;;;;;;5.88;4.25;;;6.50;99.90;;;;;;4692389;30;20521;-82
2021/04/16 09:11:08;;;;;;;3.92;3.60;;;6.50;99.90;;;;;;4674704;30;20912;-82
2021/04/16 09:13:40;;;;;;;3.92;3.63;;;6.60;99.90;;;;;;4665964;30;20421;-81
2021/04/16 09:16:14;;;;;;;3.72;3.42;;;6.60;99.90;;;;;;4679689;30;20435;-82
2021/04/16 09:18:41;;;;;;;3.92;3.63;;;6.70;99.90;;;;;;4680584;30;20499;-81
2021/04/16 09:21:23;;;;;;;4.33;3.87;;;6.80;99.90;;;;;;4669745;30;20438;-82
2021/04/16 09:23:48;;;;;;;3.97;3.58;;;6.80;99.90;;;;;;4659914;30;20474;-82
2021/04/16 09:26:47;;;;;;;4.22;3.80;;;6.90;99.90;;;;;;4687746;30;20466;-82
2021/04/16 09:29:25;;;;;;;4.70;3.90;;;7.00;99.90;;;;;;4697017;30;20437;-82
2021/04/16 09:31:52;;;;;;;3.92;3.47;;;7.10;99.90;;;;;;4679021;30;20471;-79
2021/04/16 09:34:20;;;;;;;4.38;3.97;;;7.30;99.90;;;;;;4677636;30;20438;-81
2021/04/16 09:36:51;;;;;;;4.00;3.60;;;7.30;99.90;;;;;;4684033;30;20550;-82
2021/04/16 09:40:13;;;;;;;4.97;3.60;;;7.30;99.90;;;;;;4688801;30;20441;-81
2021/04/16 09:42:44;;;;;;;3.78;3.47;;;7.40;99.90;;;;;;4645265;30;20425;-82
2021/04/16 09:45:33;;;;;;;3.80;3.50;;;7.80;99.90;;;;;;4687498;30;20426;-82
2021/04/16 09:48:04;;;;;;;3.55;3.25;;;8.00;99.90;;;;;;4677726;30;20915;-81
2021/04/16 09:50:31;;;;;;;3.45;3.15;;;8.10;99.90;;;;;;4679838;30;20405;-81
2021/04/16 09:53:10;;;;;;;6.30;3.33;;;8.40;99.90;;;;;;4693260;30;20426;-82
2021/04/16 09:55:43;;;;;;;4.18;3.50;;;8.50;99.90;;;;;;4678140;30;20429;-81
2021/04/16 09:58:10;;;;;;;4.05;3.65;;;8.70;99.90;;;;;;4685135;30;20453;-82
2021/04/16 10:00:39;;;;;;;3.65;3.35;;;8.70;99.90;;;;;;4671502;30;20476;-82
2021/04/16 10:03:39;;;;;;;3.85;3.47;;;8.90;99.90;;;;;;4691166;30;20445;-81
2021/04/16 10:06:31;;;;;;;3.70;3.40;;;8.90;99.90;;;;;;4661762;30;20488;-81
2021/04/16 10:09:24;;;;;;;4.07;3.63;;;8.90;99.90;;;;;;4677838;30;20438;-82
2021/04/16 10:11:53;;;;;;;3.65;3.35;;;8.70;99.90;;;;;;4659658;30;20800;-82
2021/04/16 10:14:30;;;;;;;4.32;3.92;;;9.10;99.90;;;;;;4678039;30;20433;-82
2021/04/16 10:17:00;;;;;;;4.30;3.88;;;9.20;99.90;;;;;;4679064;30;20949;-81
2021/04/16 10:19:34;;;;;;;4.63;4.15;;;9.50;99.90;;;;;;4694373;30;20440;-80
2021/04/16 10:22:13;;;;;;;4.05;3.72;;;9.60;99.90;;;;;;4679417;30;20791;-82
2021/04/16 10:34:16;;;;;;;5.03;3.50;;;9.80;99.90;;;;;;4675650;30;20803;-80
2021/04/16 10:58:17;;;;;;;3.75;3.42;;;10.70;99.90;;;;;;4681325;30;20425;-82
2021/04/16 12:42:13;;;;;;;3.15;2.85;;;11.90;99.90;;;;;;4645556;24;20431;-80
2021/04/16 12:44:39;;;;;;;3.80;2.60;;;12.20;99.90;;;;;;4707814;30;20422;-80
2021/04/16 12:47:14;;;;;;;4.05;2.97;;;12.10;99.90;;;;;;4720163;30;20861;-80
2021/04/16 12:49:40;;;;;;;3.30;2.80;;;12.10;99.90;;;;;;4719149;30;20493;-80
2021/04/16 12:52:06;;;;;;;3.58;2.85;;;12.00;99.90;;;;;;4699009;30;20510;-79
2021/04/16 12:54:38;;;;;;;2.75;2.33;;;12.20;99.90;;;;;;4706829;30;20430;-79
2021/04/16 12:57:05;;;;;;;2.85;2.63;;;12.20;99.90;;;;;;4699898;30;20430;-79
2021/04/16 12:59:31;;;;;;;4.20;2.60;;;11.80;99.90;;;;;;4690953;30;20418;-79
2021/04/16 13:01:57;;;;;;;4.50;2.80;;;11.90;99.90;;;;;;4708314;30;20445;-79
2021/04/16 13:04:24;;;;;;;3.30;2.67;;;11.90;99.90;;;;;;4708943;30;20468;-79
2021/04/16 13:06:50;;;;;;;3.30;3.00;;;11.90;99.90;;;;;;4733177;30;20930;-79
2021/04/16 13:09:17;;;;;;;2.90;2.58;;;11.70;99.90;;;;;;4705312;30;20445;-79
2021/04/16 13:11:47;;;;;;;2.50;2.30;;;11.50;99.90;;;;;;4694255;30;20967;-80
2021/04/16 13:14:13;;;;;;;3.05;2.45;;;11.10;99.90;;;;;;4710204;30;20433;-79
2021/04/16 13:16:39;;;;;;;2.72;2.35;;;11.30;99.90;;;;;;4698751;30;20440;-79
2021/04/16 13:19:09;;;;;;;2.73;2.30;;;11.50;99.90;;;;;;4690436;30;20890;-78
2021/04/16 13:21:36;;;;;;;4.70;2.50;;;11.60;99.90;;;;;;4687143;30;20994;-79
2021/04/16 13:24:02;;;;;;;3.08;2.30;;;11.90;99.90;;;;;;4694498;30;20785;-79
2021/04/16 13:26:28;;;;;;;2.40;2.20;;;12.10;99.90;;;;;;4715355;30;20995;-80
2021/04/16 13:28:54;;;;;;;2.63;2.10;;;11.90;99.90;;;;;;4710354;30;20513;-79
2021/04/16 13:31:20;;;;;;;3.60;2.30;;;12.40;99.90;;;;;;4686461;30;20443;-80
2021/04/16 13:33:46;;;;;;;2.70;2.28;;;12.40;99.90;;;;;;4705269;30;20440;-79
2021/04/16 13:36:14;;;;;;;2.00;1.90;;;12.40;99.90;;;;;;4715301;30;20472;-79
2021/04/16 13:38:40;;;;;;;2.97;2.03;;;12.70;99.90;;;;;;4684232;30;20434;-80
2021/04/16 13:41:06;;;;;;;3.10;2.22;;;12.90;99.90;;;;;;4701673;30;20428;-79
2021/04/16 13:43:32;;;;;;;2.28;2.08;;;12.90;99.90;;;;;;4736648;30;20443;-80
2021/04/16 13:45:58;;;;;;;2.83;1.97;;;12.90;99.90;;;;;;4705158;30;21067;-79
2021/04/16 13:48:24;;;;;;;3.35;2.50;;;13.10;99.90;;;;;;4707867;30;20780;-81
2021/04/16 13:50:50;;;;;;;2.10;1.90;;;13.20;99.90;;;;;;4699060;30;20425;-81
2021/04/16 13:53:15;;;;;;;2.30;2.10;;;13.40;99.90;;;;;;4717728;30;20410;-80
2021/04/16 13:55:41;;;;;;;2.73;2.03;;;13.50;99.90;;;;;;4704617;30;20512;-82
2021/04/16 13:58:07;;;;;;;1.95;1.85;;;13.50;99.90;;;;;;4702714;30;20506;-81
2021/04/16 14:00:34;;;;;;;3.13;2.13;;;13.10;99.90;;;;;;4715530;30;20437;-80
2021/04/16 14:03:24;;;;;;;3.22;2.42;;;13.30;99.90;;;;;;4702804;30;20902;-80
2021/04/16 14:05:50;;;;;;;1.80;1.70;;;13.40;99.90;;;;;;4699708;30;20426;-82
2021/04/16 14:08:37;;;;;;;2.30;2.10;;;13.30;99.90;;;;;;4694529;30;20986;-81
2021/04/16 14:11:03;;;;;;;3.13;2.33;;;13.70;99.90;;;;;;4668970;30;20434;-81
2021/04/16 14:13:30;;;;;;;2.38;2.00;;;13.80;99.90;;;;;;4682753;30;20447;-81
2021/04/16 14:15:57;;;;;;;1.93;1.70;;;13.90;99.90;;;;;;4716329;30;20427;-82
2021/04/16 14:18:28;;;;;;;1.85;1.75;;;13.60;99.90;;;;;;4701278;30;20586;-81
2021/04/16 14:20:55;;;;;;;2.70;1.85;;;13.40;99.90;;;;;;4700811;30;20467;-81
2021/04/16 14:23:24;;;;;;;2.58;2.20;;;13.00;99.90;;;;;;4686553;30;20413;-80
2021/04/16 14:25:50;;;;;;;1.63;1.52;;;12.90;99.90;;;;;;4700242;30;20932;-82
2021/04/16 14:28:17;;;;;;;1.90;1.80;;;12.70;99.90;;;;;;4699094;30;20418;-82
2021/04/16 14:30:43;;;;;;;3.80;1.88;;;12.70;99.90;;;;;;4713974;30;20785;-82
2021/04/16 14:33:15;;;;;;;2.38;2.17;;;12.90;99.90;;;;;;4699951;30;20515;-81
2021/04/16 14:35:41;;;;;;;2.70;1.90;;;13.00;99.90;;;;;;4700725;30;20772;-81
2021/04/16 14:38:08;;;;;;;2.33;1.77;;;13.10;99.90;;;;;;4699865;30;20430;-81
2021/04/16 14:40:34;;;;;;;3.28;1.88;;;13.10;99.90;;;;;;4700241;30;20443;-81
2021/04/16 14:43:01;;;;;;;1.90;1.80;;;13.00;99.90;;;;;;4696649;30;20950;-81
2021/04/16 14:45:29;;;;;;;2.50;1.88;;;12.40;99.90;;;;;;4716635;30;20424;-81
2021/04/16 14:47:56;;;;;;;2.00;1.80;;;12.20;99.90;;;;;;4717648;30;20428;-81
2021/04/16 14:50:25;;;;;;;1.92;1.83;;;12.40;99.90;;;;;;4715974;30;20570;-81
2021/04/16 14:52:55;;;;;;;1.95;1.70;;;12.20;99.90;;;;;;4708469;30;20432;-81
2021/04/16 14:55:26;;;;;;;2.10;1.73;;;12.10;99.90;;;;;;4731786;30;20539;-81
2021/04/16 14:57:52;;;;;;;1.88;1.50;;;11.90;99.90;;;;;;4716348;30;20478;-82
2021/04/16 15:00:23;;;;;;;1.60;1.50;;;12.10;99.90;;;;;;4682627;30;20446;-81
2021/04/16 15:02:49;;;;;;;2.67;1.65;;;12.00;99.90;;;;;;4695775;30;20489;-80
2021/04/16 15:05:18;;;;;;;1.45;1.35;;;11.60;99.90;;;;;;4683208;30;20418;-81
2021/04/16 15:07:50;;;;;;;1.42;1.30;;;11.50;99.90;;;;;;4713347;30;20422;-80
2021/04/16 15:10:19;;;;;;;1.60;1.50;;;11.60;99.90;;;;;;4700819;30;20489;-80
2021/04/16 15:12:45;;;;;;;1.30;1.20;;;11.50;99.90;;;;;;4685511;30;20830;-80
2021/04/16 15:15:35;;;;;;;1.92;1.52;;;11.60;99.90;;;;;;4682860;30;20957;-80
2021/04/16 15:18:02;;;;;;;1.48;1.38;;;11.40;99.90;;;;;;4681827;30;20491;-80
2021/04/16 15:20:30;;;;;;;1.50;1.40;;;11.40;99.90;;;;;;4688053;30;20444;-80
2021/04/16 15:22:58;;;;;;;2.25;1.90;;;11.30;99.90;;;;;;4692586;30;20412;-79
2021/04/16 15:25:25;;;;;;;1.88;1.77;;;11.40;99.90;;;;;;4716037;30;20456;-80